Pagina principale
METAR-TAF:

METAR-TAF

Aeroporti :

Base aerea di Aviano

Aviano, Italia

latitudine: 46-02N, longitudine: 012-36E, altezza: 128 m

Osservazione

Il bollettino è stato emesso 53 minuti fa, alle 19:55 UTC
Vento 2 kt da sud/sud-est
Temperature 22°C
Umidità 88%
Pressione 1016 hPa
Visibilità 10 km o più
Poco nuvoloso ad un'altezza di 5000 ft

METAR: LIPA 161955Z 16002KT 9999 FEW050 22/20 Q1016 RMK FEW VIS MIN 9999 WIND THR05 /////KT WIND THR23 /////KT A3003 BLU

Ora: 22:48 (20:48 UTC)

Previsione

Il bollettino è stato emesso 3 ore e 48 minuti fa, alle 17:00 UTC
Previsione valida dal 16 alle 18 UTC al 17 alle 03 UTC
Vento 3 kt da sud/sud-ovest
Visibilità 10 km o più
Nubi sparse ad un'altezza di 2500 ft

TAF: LIPA 161700Z 1618/1703 20003KT 9999 SCT025

Osservazioni e previsioni meteorologiche di più di 4000 aeroporti (messaggi METAR e TAF).

Le stazioni disponibili sono rappresentate dai dischi gialli e rossi sulla carta.

Puntare il mouse per vedere il nome della stazione.

Clicca sopra per visualizzare le osservazioni e previsioni meteorologiche.

Per cambiare la mappa : fare clic sui pulsanti verdi con una croce nera per ingrandire, il pulsante verde con un trattino per diminuire, o sulla freccia verde per le mappe adiacenti.


METAR-TAF: